sensor_id;sensor_type;location;lat;lon;timestamp;P1;durP1;ratioP1;P2;durP2;ratioP2
291;SDS011;23311;48.776;9.162;2023-04-25T00:00:25;1.70;;;1.47;;
291;SDS011;23311;48.776;9.162;2023-04-25T00:02:53;6.07;;;1.77;;
291;SDS011;23311;48.776;9.162;2023-04-25T00:05:25;1.67;;;1.43;;
291;SDS011;23311;48.776;9.162;2023-04-25T00:07:53;3.50;;;1.33;;
291;SDS011;23311;48.776;9.162;2023-04-25T00:10:21;2.63;;;1.63;;
291;SDS011;23311;48.776;9.162;2023-04-25T00:12:50;3.40;;;1.73;;
291;SDS011;23311;48.776;9.162;2023-04-25T00:15:18;4.33;;;1.73;;
291;SDS011;23311;48.776;9.162;2023-04-25T00:17:46;2.27;;;1.73;;
291;SDS011;23311;48.776;9.162;2023-04-25T00:20:15;1.90;;;1.50;;
291;SDS011;23311;48.776;9.162;2023-04-25T00:22:44;3.83;;;2.37;;
291;SDS011;23311;48.776;9.162;2023-04-25T00:25:12;2.30;;;2.00;;
291;SDS011;23311;48.776;9.162;2023-04-25T00:27:40;3.00;;;1.90;;
291;SDS011;23311;48.776;9.162;2023-04-25T00:30:09;1.53;;;1.33;;
291;SDS011;23311;48.776;9.162;2023-04-25T00:32:38;4.70;;;1.90;;
291;SDS011;23311;48.776;9.162;2023-04-25T00:35:06;4.13;;;1.70;;
291;SDS011;23311;48.776;9.162;2023-04-25T00:37:35;2.83;;;1.60;;
291;SDS011;23311;48.776;9.162;2023-04-25T00:40:06;2.07;;;1.70;;
291;SDS011;23311;48.776;9.162;2023-04-25T00:42:35;3.70;;;1.70;;
291;SDS011;23311;48.776;9.162;2023-04-25T00:45:04;1.77;;;1.30;;
291;SDS011;23311;48.776;9.162;2023-04-25T00:47:34;3.83;;;1.90;;
291;SDS011;23311;48.776;9.162;2023-04-25T00:50:04;1.90;;;1.80;;
291;SDS011;23311;48.776;9.162;2023-04-25T00:52:33;3.17;;;2.00;;
291;SDS011;23311;48.776;9.162;2023-04-25T00:55:01;3.60;;;1.87;;
291;SDS011;23311;48.776;9.162;2023-04-25T00:57:31;2.00;;;1.60;;
291;SDS011;23311;48.776;9.162;2023-04-25T00:59:59;2.10;;;1.63;;
291;SDS011;23311;48.776;9.162;2023-04-25T01:02:28;2.20;;;1.53;;
291;SDS011;23311;48.776;9.162;2023-04-25T01:04:57;2.70;;;1.73;;
291;SDS011;23311;48.776;9.162;2023-04-25T01:07:25;2.00;;;1.87;;
291;SDS011;23311;48.776;9.162;2023-04-25T01:09:53;2.27;;;1.50;;
291;SDS011;23311;48.776;9.162;2023-04-25T01:12:21;3.00;;;1.60;;
291;SDS011;23311;48.776;9.162;2023-04-25T01:14:51;2.30;;;1.70;;
291;SDS011;23311;48.776;9.162;2023-04-25T01:17:19;1.80;;;1.67;;
291;SDS011;23311;48.776;9.162;2023-04-25T01:19:47;3.87;;;2.10;;
291;SDS011;23311;48.776;9.162;2023-04-25T01:22:18;2.83;;;1.60;;
291;SDS011;23311;48.776;9.162;2023-04-25T01:24:47;2.10;;;1.80;;
291;SDS011;23311;48.776;9.162;2023-04-25T01:27:15;2.20;;;2.00;;
291;SDS011;23311;48.776;9.162;2023-04-25T01:29:44;2.73;;;1.53;;
291;SDS011;23311;48.776;9.162;2023-04-25T01:32:12;2.40;;;2.03;;
291;SDS011;23311;48.776;9.162;2023-04-25T01:34:41;3.17;;;2.13;;
291;SDS011;23311;48.776;9.162;2023-04-25T01:37:09;3.60;;;2.20;;
291;SDS011;23311;48.776;9.162;2023-04-25T01:39:39;2.80;;;2.37;;
291;SDS011;23311;48.776;9.162;2023-04-25T01:42:07;4.57;;;2.27;;
291;SDS011;23311;48.776;9.162;2023-04-25T01:44:35;2.27;;;1.77;;
291;SDS011;23311;48.776;9.162;2023-04-25T01:47:03;2.97;;;2.00;;
291;SDS011;23311;48.776;9.162;2023-04-25T01:49:31;2.60;;;2.30;;
291;SDS011;23311;48.776;9.162;2023-04-25T01:51:59;4.90;;;2.20;;
291;SDS011;23311;48.776;9.162;2023-04-25T01:54:27;3.67;;;1.87;;
291;SDS011;23311;48.776;9.162;2023-04-25T01:56:57;1.77;;;1.67;;
291;SDS011;23311;48.776;9.162;2023-04-25T01:59:26;2.73;;;1.60;;
291;SDS011;23311;48.776;9.162;2023-04-25T02:01:54;3.07;;;2.07;;
291;SDS011;23311;48.776;9.162;2023-04-25T02:04:22;5.40;;;2.60;;
291;SDS011;23311;48.776;9.162;2023-04-25T02:06:50;2.43;;;1.93;;
291;SDS011;23311;48.776;9.162;2023-04-25T02:09:18;2.23;;;2.03;;
291;SDS011;23311;48.776;9.162;2023-04-25T02:11:46;2.27;;;2.00;;
291;SDS011;23311;48.776;9.162;2023-04-25T02:14:16;2.77;;;2.33;;
291;SDS011;23311;48.776;9.162;2023-04-25T02:16:44;3.60;;;2.27;;
291;SDS011;23311;48.776;9.162;2023-04-25T02:19:12;5.07;;;2.37;;
291;SDS011;23311;48.776;9.162;2023-04-25T02:21:40;3.20;;;2.17;;
291;SDS011;23311;48.776;9.162;2023-04-25T02:24:08;3.70;;;2.60;;
291;SDS011;23311;48.776;9.162;2023-04-25T02:26:37;4.10;;;2.27;;
291;SDS011;23311;48.776;9.162;2023-04-25T02:29:05;5.27;;;2.20;;
291;SDS011;23311;48.776;9.162;2023-04-25T02:31:34;3.50;;;2.63;;
291;SDS011;23311;48.776;9.162;2023-04-25T02:34:03;6.40;;;2.70;;
291;SDS011;23311;48.776;9.162;2023-04-25T02:36:31;4.20;;;2.10;;
291;SDS011;23311;48.776;9.162;2023-04-25T02:39:00;3.40;;;2.47;;
291;SDS011;23311;48.776;9.162;2023-04-25T02:41:29;2.30;;;2.00;;
291;SDS011;23311;48.776;9.162;2023-04-25T02:43:57;4.07;;;2.50;;
291;SDS011;23311;48.776;9.162;2023-04-25T02:46:25;4.50;;;2.23;;
291;SDS011;23311;48.776;9.162;2023-04-25T02:49:06;5.10;;;2.20;;
291;SDS011;23311;48.776;9.162;2023-04-25T02:51:34;2.33;;;1.80;;
291;SDS011;23311;48.776;9.162;2023-04-25T02:54:02;3.20;;;2.27;;
291;SDS011;23311;48.776;9.162;2023-04-25T02:56:30;2.47;;;1.97;;
291;SDS011;23311;48.776;9.162;2023-04-25T02:58:58;2.23;;;1.70;;
291;SDS011;23311;48.776;9.162;2023-04-25T03:01:26;2.80;;;2.63;;
291;SDS011;23311;48.776;9.162;2023-04-25T03:03:54;2.43;;;1.70;;
291;SDS011;23311;48.776;9.162;2023-04-25T03:06:24;2.40;;;1.83;;
291;SDS011;23311;48.776;9.162;2023-04-25T03:08:52;2.23;;;2.03;;
291;SDS011;23311;48.776;9.162;2023-04-25T03:11:20;2.77;;;1.80;;
291;SDS011;23311;48.776;9.162;2023-04-25T03:13:48;2.70;;;2.30;;
291;SDS011;23311;48.776;9.162;2023-04-25T03:16:16;4.30;;;1.90;;
291;SDS011;23311;48.776;9.162;2023-04-25T03:18:44;2.70;;;1.90;;
291;SDS011;23311;48.776;9.162;2023-04-25T03:21:12;2.87;;;1.87;;
291;SDS011;23311;48.776;9.162;2023-04-25T03:23:42;2.00;;;1.70;;
291;SDS011;23311;48.776;9.162;2023-04-25T03:26:10;1.87;;;1.73;;
291;SDS011;23311;48.776;9.162;2023-04-25T03:28:38;2.40;;;1.60;;
291;SDS011;23311;48.776;9.162;2023-04-25T03:31:06;2.10;;;1.57;;
291;SDS011;23311;48.776;9.162;2023-04-25T03:33:34;2.47;;;1.77;;
291;SDS011;23311;48.776;9.162;2023-04-25T03:36:02;2.93;;;2.27;;
291;SDS011;23311;48.776;9.162;2023-04-25T03:38:31;5.40;;;1.97;;
291;SDS011;23311;48.776;9.162;2023-04-25T03:41:00;3.90;;;2.07;;
291;SDS011;23311;48.776;9.162;2023-04-25T03:43:29;5.20;;;3.67;;
291;SDS011;23311;48.776;9.162;2023-04-25T03:45:57;2.53;;;2.03;;
291;SDS011;23311;48.776;9.162;2023-04-25T03:48:25;2.70;;;2.50;;
291;SDS011;23311;48.776;9.162;2023-04-25T03:50:53;3.30;;;1.73;;
291;SDS011;23311;48.776;9.162;2023-04-25T03:53:21;3.43;;;2.40;;
291;SDS011;23311;48.776;9.162;2023-04-25T03:55:49;3.07;;;2.27;;
291;SDS011;23311;48.776;9.162;2023-04-25T03:58:19;3.17;;;2.20;;
291;SDS011;23311;48.776;9.162;2023-04-25T04:00:47;2.60;;;2.07;;
291;SDS011;23311;48.776;9.162;2023-04-25T04:03:15;4.13;;;3.33;;
291;SDS011;23311;48.776;9.162;2023-04-25T04:05:43;2.23;;;2.13;;
291;SDS011;23311;48.776;9.162;2023-04-25T04:08:13;5.13;;;2.47;;
291;SDS011;23311;48.776;9.162;2023-04-25T04:10:41;3.10;;;1.80;;
291;SDS011;23311;48.776;9.162;2023-04-25T04:13:09;5.57;;;2.30;;
291;SDS011;23311;48.776;9.162;2023-04-25T04:15:38;3.47;;;2.10;;
291;SDS011;23311;48.776;9.162;2023-04-25T04:18:06;2.70;;;2.50;;
291;SDS011;23311;48.776;9.162;2023-04-25T04:20:34;2.50;;;2.20;;
291;SDS011;23311;48.776;9.162;2023-04-25T04:23:02;2.80;;;2.13;;
291;SDS011;23311;48.776;9.162;2023-04-25T04:25:31;3.33;;;2.60;;
291;SDS011;23311;48.776;9.162;2023-04-25T04:28:00;5.13;;;3.70;;
291;SDS011;23311;48.776;9.162;2023-04-25T04:30:28;3.13;;;2.47;;
291;SDS011;23311;48.776;9.162;2023-04-25T04:33:04;3.83;;;2.53;;
291;SDS011;23311;48.776;9.162;2023-04-25T04:35:32;3.30;;;3.07;;
291;SDS011;23311;48.776;9.162;2023-04-25T04:38:00;4.83;;;2.73;;
291;SDS011;23311;48.776;9.162;2023-04-25T04:40:28;3.00;;;2.80;;
291;SDS011;23311;48.776;9.162;2023-04-25T04:42:57;6.77;;;2.73;;
291;SDS011;23311;48.776;9.162;2023-04-25T04:45:25;5.67;;;2.80;;
291;SDS011;23311;48.776;9.162;2023-04-25T04:47:54;6.90;;;3.10;;
291;SDS011;23311;48.776;9.162;2023-04-25T04:50:23;4.77;;;2.93;;
291;SDS011;23311;48.776;9.162;2023-04-25T04:52:52;3.73;;;2.97;;
291;SDS011;23311;48.776;9.162;2023-04-25T04:55:21;3.20;;;2.63;;
291;SDS011;23311;48.776;9.162;2023-04-25T04:57:49;4.10;;;2.97;;
291;SDS011;23311;48.776;9.162;2023-04-25T05:00:17;3.80;;;2.93;;
291;SDS011;23311;48.776;9.162;2023-04-25T05:02:47;3.50;;;2.80;;
291;SDS011;23311;48.776;9.162;2023-04-25T05:05:15;4.23;;;3.20;;
291;SDS011;23311;48.776;9.162;2023-04-25T05:07:45;4.93;;;2.70;;
291;SDS011;23311;48.776;9.162;2023-04-25T05:10:13;2.80;;;2.60;;
291;SDS011;23311;48.776;9.162;2023-04-25T05:12:41;6.63;;;3.20;;
291;SDS011;23311;48.776;9.162;2023-04-25T05:15:09;3.63;;;3.37;;
291;SDS011;23311;48.776;9.162;2023-04-25T05:17:38;3.97;;;3.03;;
291;SDS011;23311;48.776;9.162;2023-04-25T05:20:06;4.17;;;3.27;;
291;SDS011;23311;48.776;9.162;2023-04-25T05:22:36;5.90;;;3.03;;
291;SDS011;23311;48.776;9.162;2023-04-25T05:25:05;3.27;;;3.03;;
291;SDS011;23311;48.776;9.162;2023-04-25T05:27:34;3.90;;;3.47;;
291;SDS011;23311;48.776;9.162;2023-04-25T05:30:02;3.37;;;2.80;;
291;SDS011;23311;48.776;9.162;2023-04-25T05:32:32;4.20;;;2.90;;
291;SDS011;23311;48.776;9.162;2023-04-25T05:35:00;3.27;;;2.80;;
291;SDS011;23311;48.776;9.162;2023-04-25T05:37:29;4.00;;;2.60;;
291;SDS011;23311;48.776;9.162;2023-04-25T05:39:59;3.97;;;3.30;;
291;SDS011;23311;48.776;9.162;2023-04-25T05:42:28;4.70;;;3.10;;
291;SDS011;23311;48.776;9.162;2023-04-25T05:44:56;2.97;;;2.77;;
291;SDS011;23311;48.776;9.162;2023-04-25T05:47:24;2.77;;;2.60;;
291;SDS011;23311;48.776;9.162;2023-04-25T05:49:52;3.27;;;2.47;;
291;SDS011;23311;48.776;9.162;2023-04-25T05:52:20;3.67;;;3.23;;
291;SDS011;23311;48.776;9.162;2023-04-25T05:54:48;2.30;;;2.17;;
291;SDS011;23311;48.776;9.162;2023-04-25T05:57:20;2.20;;;2.00;;
291;SDS011;23311;48.776;9.162;2023-04-25T05:59:50;3.07;;;2.37;;
291;SDS011;23311;48.776;9.162;2023-04-25T06:02:19;3.10;;;2.30;;
291;SDS011;23311;48.776;9.162;2023-04-25T06:04:49;2.97;;;2.40;;
291;SDS011;23311;48.776;9.162;2023-04-25T06:07:18;7.00;;;2.30;;
291;SDS011;23311;48.776;9.162;2023-04-25T06:09:47;2.70;;;1.93;;
291;SDS011;23311;48.776;9.162;2023-04-25T06:12:15;3.03;;;2.30;;
291;SDS011;23311;48.776;9.162;2023-04-25T06:14:43;2.60;;;2.40;;
291;SDS011;23311;48.776;9.162;2023-04-25T06:17:12;4.60;;;4.33;;
291;SDS011;23311;48.776;9.162;2023-04-25T06:19:41;4.10;;;2.90;;
291;SDS011;23311;48.776;9.162;2023-04-25T06:22:09;3.20;;;2.80;;
291;SDS011;23311;48.776;9.162;2023-04-25T06:24:37;2.80;;;2.50;;
291;SDS011;23311;48.776;9.162;2023-04-25T06:27:05;3.20;;;2.07;;
291;SDS011;23311;48.776;9.162;2023-04-25T06:29:33;2.50;;;2.23;;
291;SDS011;23311;48.776;9.162;2023-04-25T06:32:01;3.83;;;2.20;;
291;SDS011;23311;48.776;9.162;2023-04-25T06:34:31;3.10;;;2.20;;
291;SDS011;23311;48.776;9.162;2023-04-25T06:36:59;2.80;;;2.57;;
291;SDS011;23311;48.776;9.162;2023-04-25T06:39:27;2.50;;;2.30;;
291;SDS011;23311;48.776;9.162;2023-04-25T06:41:56;3.80;;;2.47;;
291;SDS011;23311;48.776;9.162;2023-04-25T06:44:25;2.40;;;2.10;;
291;SDS011;23311;48.776;9.162;2023-04-25T06:46:55;3.00;;;2.53;;
291;SDS011;23311;48.776;9.162;2023-04-25T06:49:23;3.20;;;2.63;;
291;SDS011;23311;48.776;9.162;2023-04-25T06:51:53;3.53;;;3.00;;
291;SDS011;23311;48.776;9.162;2023-04-25T06:54:21;3.63;;;3.30;;
291;SDS011;23311;48.776;9.162;2023-04-25T06:56:49;4.03;;;2.60;;
291;SDS011;23311;48.776;9.162;2023-04-25T06:59:17;4.30;;;2.67;;
291;SDS011;23311;48.776;9.162;2023-04-25T07:01:45;3.60;;;3.43;;
291;SDS011;23311;48.776;9.162;2023-04-25T07:04:13;3.47;;;2.90;;
291;SDS011;23311;48.776;9.162;2023-04-25T07:06:42;4.40;;;3.40;;
291;SDS011;23311;48.776;9.162;2023-04-25T07:09:11;4.00;;;3.33;;
291;SDS011;23311;48.776;9.162;2023-04-25T07:11:39;4.23;;;3.33;;
291;SDS011;23311;48.776;9.162;2023-04-25T07:14:07;3.50;;;3.30;;
291;SDS011;23311;48.776;9.162;2023-04-25T07:16:35;4.00;;;3.73;;
291;SDS011;23311;48.776;9.162;2023-04-25T07:19:04;5.43;;;3.83;;
291;SDS011;23311;48.776;9.162;2023-04-25T07:21:32;3.77;;;3.60;;
291;SDS011;23311;48.776;9.162;2023-04-25T07:24:00;4.10;;;3.67;;
291;SDS011;23311;48.776;9.162;2023-04-25T07:26:29;4.90;;;3.90;;
291;SDS011;23311;48.776;9.162;2023-04-25T07:28:57;4.23;;;3.33;;
291;SDS011;23311;48.776;9.162;2023-04-25T07:31:25;4.37;;;3.40;;
291;SDS011;23311;48.776;9.162;2023-04-25T07:33:55;3.53;;;3.40;;
291;SDS011;23311;48.776;9.162;2023-04-25T07:36:25;4.63;;;3.53;;
291;SDS011;23311;48.776;9.162;2023-04-25T07:38:54;3.90;;;3.70;;
291;SDS011;23311;48.776;9.162;2023-04-25T07:41:22;4.17;;;3.67;;
291;SDS011;23311;48.776;9.162;2023-04-25T07:43:51;4.63;;;4.03;;
291;SDS011;23311;48.776;9.162;2023-04-25T07:46:19;5.10;;;4.27;;
291;SDS011;23311;48.776;9.162;2023-04-25T07:48:47;4.40;;;4.13;;
291;SDS011;23311;48.776;9.162;2023-04-25T07:51:16;4.73;;;3.70;;
291;SDS011;23311;48.776;9.162;2023-04-25T07:53:46;4.67;;;3.83;;
291;SDS011;23311;48.776;9.162;2023-04-25T07:56:16;5.50;;;3.30;;
291;SDS011;23311;48.776;9.162;2023-04-25T07:58:44;3.83;;;3.60;;
291;SDS011;23311;48.776;9.162;2023-04-25T08:01:13;7.40;;;4.23;;
291;SDS011;23311;48.776;9.162;2023-04-25T08:03:41;4.73;;;4.40;;
291;SDS011;23311;48.776;9.162;2023-04-25T08:06:10;5.23;;;3.83;;
291;SDS011;23311;48.776;9.162;2023-04-25T08:08:38;8.67;;;5.27;;
291;SDS011;23311;48.776;9.162;2023-04-25T08:11:06;4.40;;;3.80;;
291;SDS011;23311;48.776;9.162;2023-04-25T08:13:34;4.40;;;4.17;;
291;SDS011;23311;48.776;9.162;2023-04-25T08:16:03;4.37;;;3.83;;
291;SDS011;23311;48.776;9.162;2023-04-25T08:18:32;7.33;;;4.90;;
291;SDS011;23311;48.776;9.162;2023-04-25T08:21:00;5.47;;;4.37;;
291;SDS011;23311;48.776;9.162;2023-04-25T08:23:28;4.57;;;4.17;;
291;SDS011;23311;48.776;9.162;2023-04-25T08:25:57;6.90;;;5.17;;
291;SDS011;23311;48.776;9.162;2023-04-25T08:28:25;5.80;;;5.10;;
291;SDS011;23311;48.776;9.162;2023-04-25T08:30:53;3.90;;;3.37;;
291;SDS011;23311;48.776;9.162;2023-04-25T08:33:21;5.40;;;3.67;;
291;SDS011;23311;48.776;9.162;2023-04-25T08:35:50;5.43;;;3.90;;
291;SDS011;23311;48.776;9.162;2023-04-25T08:38:18;5.97;;;4.43;;
291;SDS011;23311;48.776;9.162;2023-04-25T08:40:48;5.07;;;4.10;;
291;SDS011;23311;48.776;9.162;2023-04-25T08:43:18;6.30;;;4.47;;
291;SDS011;23311;48.776;9.162;2023-04-25T08:45:47;5.07;;;4.30;;
291;SDS011;23311;48.776;9.162;2023-04-25T08:48:16;4.70;;;4.40;;
291;SDS011;23311;48.776;9.162;2023-04-25T08:50:45;4.53;;;4.23;;
291;SDS011;23311;48.776;9.162;2023-04-25T08:53:19;4.80;;;4.30;;
291;SDS011;23311;48.776;9.162;2023-04-25T08:55:51;5.23;;;4.00;;
291;SDS011;23311;48.776;9.162;2023-04-25T08:58:21;4.67;;;4.27;;
291;SDS011;23311;48.776;9.162;2023-04-25T09:00:50;4.80;;;4.40;;
291;SDS011;23311;48.776;9.162;2023-04-25T09:03:19;4.90;;;4.60;;
291;SDS011;23311;48.776;9.162;2023-04-25T09:05:47;4.10;;;3.90;;
291;SDS011;23311;48.776;9.162;2023-04-25T09:08:17;5.03;;;4.47;;
291;SDS011;23311;48.776;9.162;2023-04-25T09:10:46;5.17;;;4.30;;
291;SDS011;23311;48.776;9.162;2023-04-25T09:13:14;6.67;;;4.30;;
291;SDS011;23311;48.776;9.162;2023-04-25T09:15:51;4.70;;;3.60;;
291;SDS011;23311;48.776;9.162;2023-04-25T09:18:24;4.67;;;4.40;;
291;SDS011;23311;48.776;9.162;2023-04-25T09:20:56;9.60;;;4.57;;
291;SDS011;23311;48.776;9.162;2023-04-25T09:23:41;5.97;;;4.97;;
291;SDS011;23311;48.776;9.162;2023-04-25T09:26:13;7.10;;;4.80;;
291;SDS011;23311;48.776;9.162;2023-04-25T09:28:43;6.63;;;4.23;;
291;SDS011;23311;48.776;9.162;2023-04-25T09:31:12;6.13;;;4.87;;
291;SDS011;23311;48.776;9.162;2023-04-25T09:33:48;4.83;;;4.30;;
291;SDS011;23311;48.776;9.162;2023-04-25T09:36:18;5.40;;;4.90;;
291;SDS011;23311;48.776;9.162;2023-04-25T09:38:54;5.13;;;4.13;;
291;SDS011;23311;48.776;9.162;2023-04-25T09:41:23;4.80;;;4.00;;
291;SDS011;23311;48.776;9.162;2023-04-25T09:43:52;5.10;;;3.87;;
291;SDS011;23311;48.776;9.162;2023-04-25T09:46:25;4.33;;;3.70;;
291;SDS011;23311;48.776;9.162;2023-04-25T09:49:05;5.60;;;3.73;;
291;SDS011;23311;48.776;9.162;2023-04-25T09:51:34;3.80;;;3.10;;
291;SDS011;23311;48.776;9.162;2023-04-25T09:54:03;4.30;;;4.10;;
291;SDS011;23311;48.776;9.162;2023-04-25T09:56:32;3.80;;;3.30;;
291;SDS011;23311;48.776;9.162;2023-04-25T09:59:03;3.87;;;3.70;;
291;SDS011;23311;48.776;9.162;2023-04-25T10:01:33;4.77;;;4.53;;
291;SDS011;23311;48.776;9.162;2023-04-25T10:04:02;3.30;;;3.20;;
291;SDS011;23311;48.776;9.162;2023-04-25T10:06:33;4.53;;;4.03;;
291;SDS011;23311;48.776;9.162;2023-04-25T10:09:04;1.87;;;1.77;;
291;SDS011;23311;48.776;9.162;2023-04-25T10:11:34;2.90;;;2.60;;
291;SDS011;23311;48.776;9.162;2023-04-25T10:14:03;3.00;;;1.80;;
291;SDS011;23311;48.776;9.162;2023-04-25T10:16:31;2.40;;;2.00;;
291;SDS011;23311;48.776;9.162;2023-04-25T10:19:01;1.93;;;1.33;;
291;SDS011;23311;48.776;9.162;2023-04-25T10:21:30;2.23;;;1.87;;
291;SDS011;23311;48.776;9.162;2023-04-25T10:23:59;1.90;;;1.60;;
291;SDS011;23311;48.776;9.162;2023-04-25T10:26:29;4.00;;;2.50;;
291;SDS011;23311;48.776;9.162;2023-04-25T10:28:58;4.27;;;1.80;;
291;SDS011;23311;48.776;9.162;2023-04-25T10:31:29;4.03;;;1.43;;
291;SDS011;23311;48.776;9.162;2023-04-25T10:33:58;1.63;;;1.17;;
291;SDS011;23311;48.776;9.162;2023-04-25T10:36:31;1.10;;;0.70;;
291;SDS011;23311;48.776;9.162;2023-04-25T10:39:02;2.57;;;1.83;;
291;SDS011;23311;48.776;9.162;2023-04-25T10:41:45;2.17;;;1.30;;
291;SDS011;23311;48.776;9.162;2023-04-25T10:44:14;3.17;;;1.87;;
291;SDS011;23311;48.776;9.162;2023-04-25T10:46:44;1.87;;;1.80;;
291;SDS011;23311;48.776;9.162;2023-04-25T10:49:28;2.20;;;1.60;;
291;SDS011;23311;48.776;9.162;2023-04-25T10:52:13;2.57;;;1.97;;
291;SDS011;23311;48.776;9.162;2023-04-25T10:54:46;3.13;;;2.80;;
291;SDS011;23311;48.776;9.162;2023-04-25T11:00:08;5.00;;;4.27;;
291;SDS011;23311;48.776;9.162;2023-04-25T11:02:42;3.70;;;3.53;;
291;SDS011;23311;48.776;9.162;2023-04-25T11:05:23;6.40;;;3.50;;
291;SDS011;23311;48.776;9.162;2023-04-25T11:07:58;4.87;;;4.10;;
291;SDS011;23311;48.776;9.162;2023-04-25T11:10:34;4.40;;;3.83;;
291;SDS011;23311;48.776;9.162;2023-04-25T11:13:04;4.27;;;3.80;;
291;SDS011;23311;48.776;9.162;2023-04-25T11:15:32;3.77;;;3.30;;
291;SDS011;23311;48.776;9.162;2023-04-25T11:18:00;4.23;;;3.10;;
291;SDS011;23311;48.776;9.162;2023-04-25T11:20:28;4.30;;;2.60;;
291;SDS011;23311;48.776;9.162;2023-04-25T11:22:57;5.03;;;3.23;;
291;SDS011;23311;48.776;9.162;2023-04-25T11:25:26;3.03;;;2.10;;
291;SDS011;23311;48.776;9.162;2023-04-25T11:27:55;2.97;;;2.17;;
291;SDS011;23311;48.776;9.162;2023-04-25T11:30:26;2.27;;;1.50;;
291;SDS011;23311;48.776;9.162;2023-04-25T11:32:55;1.87;;;1.83;;
291;SDS011;23311;48.776;9.162;2023-04-25T11:35:24;3.63;;;2.07;;
291;SDS011;23311;48.776;9.162;2023-04-25T11:37:52;2.00;;;1.50;;
291;SDS011;23311;48.776;9.162;2023-04-25T11:40:20;2.37;;;2.23;;
291;SDS011;23311;48.776;9.162;2023-04-25T11:42:51;4.00;;;2.20;;
291;SDS011;23311;48.776;9.162;2023-04-25T11:45:20;4.20;;;3.13;;
291;SDS011;23311;48.776;9.162;2023-04-25T11:47:52;3.87;;;2.47;;
291;SDS011;23311;48.776;9.162;2023-04-25T11:50:20;3.63;;;3.00;;
291;SDS011;23311;48.776;9.162;2023-04-25T11:52:48;2.90;;;2.50;;
291;SDS011;23311;48.776;9.162;2023-04-25T11:55:17;3.17;;;2.63;;
291;SDS011;23311;48.776;9.162;2023-04-25T11:57:47;3.37;;;2.90;;
291;SDS011;23311;48.776;9.162;2023-04-25T12:00:17;3.20;;;2.90;;
291;SDS011;23311;48.776;9.162;2023-04-25T12:02:47;3.53;;;3.37;;
291;SDS011;23311;48.776;9.162;2023-04-25T12:05:23;4.20;;;3.97;;
291;SDS011;23311;48.776;9.162;2023-04-25T12:07:58;3.33;;;3.13;;
291;SDS011;23311;48.776;9.162;2023-04-25T12:10:40;4.00;;;2.50;;
291;SDS011;23311;48.776;9.162;2023-04-25T12:13:19;4.50;;;3.50;;
291;SDS011;23311;48.776;9.162;2023-04-25T12:15:48;4.30;;;3.33;;
291;SDS011;23311;48.776;9.162;2023-04-25T12:18:22;3.53;;;3.33;;
291;SDS011;23311;48.776;9.162;2023-04-25T12:20:55;4.70;;;3.67;;
291;SDS011;23311;48.776;9.162;2023-04-25T12:23:26;4.30;;;3.50;;
291;SDS011;23311;48.776;9.162;2023-04-25T12:25:59;6.93;;;4.40;;
291;SDS011;23311;48.776;9.162;2023-04-25T12:28:31;6.20;;;4.50;;
291;SDS011;23311;48.776;9.162;2023-04-25T12:31:00;4.43;;;3.90;;
291;SDS011;23311;48.776;9.162;2023-04-25T12:33:31;4.73;;;4.40;;
291;SDS011;23311;48.776;9.162;2023-04-25T12:36:01;5.67;;;4.60;;
291;SDS011;23311;48.776;9.162;2023-04-25T12:38:35;6.10;;;5.00;;
291;SDS011;23311;48.776;9.162;2023-04-25T12:41:04;6.47;;;5.00;;
291;SDS011;23311;48.776;9.162;2023-04-25T12:43:33;5.80;;;5.17;;
291;SDS011;23311;48.776;9.162;2023-04-25T12:46:01;5.60;;;4.80;;
291;SDS011;23311;48.776;9.162;2023-04-25T12:48:29;7.87;;;5.97;;
291;SDS011;23311;48.776;9.162;2023-04-25T12:50:57;5.07;;;4.77;;
291;SDS011;23311;48.776;9.162;2023-04-25T12:53:27;6.77;;;5.40;;
291;SDS011;23311;48.776;9.162;2023-04-25T12:55:55;6.50;;;5.20;;
291;SDS011;23311;48.776;9.162;2023-04-25T12:58:23;8.70;;;6.63;;
291;SDS011;23311;48.776;9.162;2023-04-25T13:00:52;5.63;;;4.80;;
291;SDS011;23311;48.776;9.162;2023-04-25T13:03:20;5.80;;;4.50;;
291;SDS011;23311;48.776;9.162;2023-04-25T13:05:49;5.90;;;4.70;;
291;SDS011;23311;48.776;9.162;2023-04-25T13:08:18;6.63;;;4.43;;
291;SDS011;23311;48.776;9.162;2023-04-25T13:10:48;4.70;;;3.97;;
291;SDS011;23311;48.776;9.162;2023-04-25T13:13:16;4.90;;;4.40;;
291;SDS011;23311;48.776;9.162;2023-04-25T13:15:44;5.77;;;4.07;;
291;SDS011;23311;48.776;9.162;2023-04-25T13:18:13;6.43;;;5.37;;
291;SDS011;23311;48.776;9.162;2023-04-25T13:20:41;4.83;;;4.50;;
291;SDS011;23311;48.776;9.162;2023-04-25T13:23:09;5.50;;;4.87;;
291;SDS011;23311;48.776;9.162;2023-04-25T13:25:37;7.53;;;4.63;;
291;SDS011;23311;48.776;9.162;2023-04-25T13:28:06;5.77;;;5.53;;
291;SDS011;23311;48.776;9.162;2023-04-25T13:30:34;6.13;;;5.13;;
291;SDS011;23311;48.776;9.162;2023-04-25T13:33:03;7.47;;;5.77;;
291;SDS011;23311;48.776;9.162;2023-04-25T13:35:33;7.40;;;5.90;;
291;SDS011;23311;48.776;9.162;2023-04-25T13:38:01;6.80;;;5.20;;
291;SDS011;23311;48.776;9.162;2023-04-25T13:40:29;6.67;;;5.43;;
291;SDS011;23311;48.776;9.162;2023-04-25T13:42:58;9.97;;;6.60;;
291;SDS011;23311;48.776;9.162;2023-04-25T13:45:27;8.40;;;6.67;;
291;SDS011;23311;48.776;9.162;2023-04-25T13:47:58;10.63;;;6.53;;
291;SDS011;23311;48.776;9.162;2023-04-25T13:50:27;8.53;;;6.43;;
291;SDS011;23311;48.776;9.162;2023-04-25T13:52:55;7.87;;;7.13;;
291;SDS011;23311;48.776;9.162;2023-04-25T13:55:23;9.70;;;6.83;;
291;SDS011;23311;48.776;9.162;2023-04-25T13:57:51;7.60;;;6.57;;
291;SDS011;23311;48.776;9.162;2023-04-25T14:00:19;9.13;;;7.27;;
291;SDS011;23311;48.776;9.162;2023-04-25T14:02:49;6.50;;;5.80;;
291;SDS011;23311;48.776;9.162;2023-04-25T14:05:17;7.77;;;7.07;;
291;SDS011;23311;48.776;9.162;2023-04-25T14:07:45;7.60;;;6.97;;
291;SDS011;23311;48.776;9.162;2023-04-25T14:10:13;8.90;;;7.67;;
291;SDS011;23311;48.776;9.162;2023-04-25T14:12:41;7.87;;;6.60;;
291;SDS011;23311;48.776;9.162;2023-04-25T14:15:10;6.53;;;6.13;;
291;SDS011;23311;48.776;9.162;2023-04-25T14:17:38;8.33;;;6.23;;
291;SDS011;23311;48.776;9.162;2023-04-25T14:20:08;7.80;;;5.27;;
291;SDS011;23311;48.776;9.162;2023-04-25T14:22:37;7.10;;;5.20;;
291;SDS011;23311;48.776;9.162;2023-04-25T14:25:09;6.10;;;4.93;;
291;SDS011;23311;48.776;9.162;2023-04-25T14:27:37;5.17;;;4.60;;
291;SDS011;23311;48.776;9.162;2023-04-25T14:30:05;4.93;;;4.63;;
291;SDS011;23311;48.776;9.162;2023-04-25T14:32:35;6.27;;;5.13;;
291;SDS011;23311;48.776;9.162;2023-04-25T14:35:03;6.73;;;4.30;;
291;SDS011;23311;48.776;9.162;2023-04-25T14:37:33;5.00;;;3.60;;
291;SDS011;23311;48.776;9.162;2023-04-25T14:40:01;5.50;;;4.20;;
291;SDS011;23311;48.776;9.162;2023-04-25T14:42:30;4.23;;;3.60;;
291;SDS011;23311;48.776;9.162;2023-04-25T14:45:00;5.43;;;3.80;;
291;SDS011;23311;48.776;9.162;2023-04-25T14:47:28;4.37;;;4.07;;
291;SDS011;23311;48.776;9.162;2023-04-25T14:49:56;3.80;;;3.70;;
291;SDS011;23311;48.776;9.162;2023-04-25T14:52:24;4.90;;;4.10;;
291;SDS011;23311;48.776;9.162;2023-04-25T14:54:54;4.60;;;4.27;;
291;SDS011;23311;48.776;9.162;2023-04-25T14:57:22;5.20;;;4.90;;
291;SDS011;23311;48.776;9.162;2023-04-25T14:59:50;4.67;;;4.13;;
291;SDS011;23311;48.776;9.162;2023-04-25T15:02:19;4.90;;;4.67;;
291;SDS011;23311;48.776;9.162;2023-04-25T15:04:47;4.70;;;4.07;;
291;SDS011;23311;48.776;9.162;2023-04-25T15:07:16;3.27;;;3.07;;
291;SDS011;23311;48.776;9.162;2023-04-25T15:09:44;5.20;;;4.60;;
291;SDS011;23311;48.776;9.162;2023-04-25T15:12:13;5.57;;;4.63;;
291;SDS011;23311;48.776;9.162;2023-04-25T15:14:41;4.97;;;4.10;;
291;SDS011;23311;48.776;9.162;2023-04-25T15:17:09;5.20;;;4.90;;
291;SDS011;23311;48.776;9.162;2023-04-25T15:19:39;5.47;;;4.33;;
291;SDS011;23311;48.776;9.162;2023-04-25T15:22:07;7.53;;;5.97;;
291;SDS011;23311;48.776;9.162;2023-04-25T15:24:36;6.50;;;5.63;;
291;SDS011;23311;48.776;9.162;2023-04-25T15:27:04;5.60;;;5.30;;
291;SDS011;23311;48.776;9.162;2023-04-25T15:29:33;4.67;;;4.37;;